Portada
METAR-TAF:

METAR-TAF

Aeroports :

Machala, Equador

latitud: 03-26-07S, longitud: 079-58-40W, altitud: 52 m

Observació

L'informe es va fer fa 1 hora i 0 minuts, a les 16:00 UTC
Vent 2 kt del Nord-Oest
Temperatura 23°C
Humitat 94%
Pressió 1013 hPa
Visibilitat: 8000 m
Escasses núvols a una alçada de 1000 ft
Cel cobert a una alçada de 2000 ft
xàfecs en les proximitats

METAR: SERO 171600Z 31002KT 8000 VCSH FEW010 OVC020 23/22 Q1013

Hora: 12:00 (17:00 UTC)


TAF: manca

Observacions i pronòstics meteorològics de més de 4000 aeroports (METAR i TAF).

Les estacions disponibles són els punts grocs i vermells al mapa.

Posi el ratolí al punt desitjat per veure el nom de l'estació.

Feu clic per veure les observacions i els pronòstics meteorològics.

Per canviar el mapa: feu clic els botons verds amb una creu de color negre per apropar; al botó verd amb un guió per allunyar la imatge; o en les fletxes verdes per a mapes adjacents.


METAR-TAF: